sensor_id;sensor_type;location;lat;lon;timestamp;temperature;humidity
4755;DHT22;2391;47.212;7.542;2023-07-20T00:00:46;25.90;58.90
4755;DHT22;2391;47.212;7.542;2023-07-20T00:03:13;25.90;59.10
4755;DHT22;2391;47.212;7.542;2023-07-20T00:05:46;25.80;58.90
4755;DHT22;2391;47.212;7.542;2023-07-20T00:08:09;25.70;58.80
4755;DHT22;2391;47.212;7.542;2023-07-20T00:10:35;25.50;59.20
4755;DHT22;2391;47.212;7.542;2023-07-20T00:13:01;25.50;60.10
4755;DHT22;2391;47.212;7.542;2023-07-20T00:15:27;25.40;60.70
4755;DHT22;2391;47.212;7.542;2023-07-20T00:17:52;25.50;60.90
4755;DHT22;2391;47.212;7.542;2023-07-20T00:20:18;25.40;60.30
4755;DHT22;2391;47.212;7.542;2023-07-20T00:22:44;25.50;60.10
4755;DHT22;2391;47.212;7.542;2023-07-20T00:25:09;25.50;60.30
4755;DHT22;2391;47.212;7.542;2023-07-20T00:27:37;25.60;60.40
4755;DHT22;2391;47.212;7.542;2023-07-20T00:30:04;25.60;60.50
4755;DHT22;2391;47.212;7.542;2023-07-20T00:32:30;25.70;60.80
4755;DHT22;2391;47.212;7.542;2023-07-20T00:34:56;25.70;60.90
4755;DHT22;2391;47.212;7.542;2023-07-20T00:37:22;25.70;60.50
4755;DHT22;2391;47.212;7.542;2023-07-20T00:39:47;25.70;60.30
4755;DHT22;2391;47.212;7.542;2023-07-20T00:42:13;25.70;60.50
4755;DHT22;2391;47.212;7.542;2023-07-20T00:44:39;25.70;61.00
4755;DHT22;2391;47.212;7.542;2023-07-20T00:47:05;25.60;61.20
4755;DHT22;2391;47.212;7.542;2023-07-20T00:49:31;25.50;60.80
4755;DHT22;2391;47.212;7.542;2023-07-20T00:52:00;25.50;60.90
4755;DHT22;2391;47.212;7.542;2023-07-20T00:54:27;25.50;60.90
4755;DHT22;2391;47.212;7.542;2023-07-20T00:56:54;25.40;60.70
4755;DHT22;2391;47.212;7.542;2023-07-20T00:59:21;25.50;60.60
4755;DHT22;2391;47.212;7.542;2023-07-20T01:01:47;25.50;60.70
4755;DHT22;2391;47.212;7.542;2023-07-20T01:04:13;25.50;60.80
4755;DHT22;2391;47.212;7.542;2023-07-20T01:06:56;25.50;61.10
4755;DHT22;2391;47.212;7.542;2023-07-20T01:09:31;25.20;61.80
4755;DHT22;2391;47.212;7.542;2023-07-20T01:12:05;25.10;62.40
4755;DHT22;2391;47.212;7.542;2023-07-20T01:14:32;25.00;61.50
4755;DHT22;2391;47.212;7.542;2023-07-20T01:16:59;24.90;61.60
4755;DHT22;2391;47.212;7.542;2023-07-20T01:19:25;24.80;63.10
4755;DHT22;2391;47.212;7.542;2023-07-20T01:21:55;24.70;64.20
4755;DHT22;2391;47.212;7.542;2023-07-20T01:32:31;24.70;65.70
4755;DHT22;2391;47.212;7.542;2023-07-20T01:34:58;24.70;65.80
4755;DHT22;2391;47.212;7.542;2023-07-20T01:37:24;24.70;65.80
4755;DHT22;2391;47.212;7.542;2023-07-20T01:39:53;24.80;65.80
4755;DHT22;2391;47.212;7.542;2023-07-20T01:42:22;24.80;65.90
4755;DHT22;2391;47.212;7.542;2023-07-20T01:44:52;24.80;65.80
4755;DHT22;2391;47.212;7.542;2023-07-20T01:47:19;24.90;65.70
4755;DHT22;2391;47.212;7.542;2023-07-20T01:49:45;24.90;65.90
4755;DHT22;2391;47.212;7.542;2023-07-20T01:52:10;24.80;66.20
4755;DHT22;2391;47.212;7.542;2023-07-20T01:54:36;24.80;66.40
4755;DHT22;2391;47.212;7.542;2023-07-20T01:57:02;24.70;66.60
4755;DHT22;2391;47.212;7.542;2023-07-20T01:59:28;24.70;67.20
4755;DHT22;2391;47.212;7.542;2023-07-20T02:01:54;24.40;67.50
4755;DHT22;2391;47.212;7.542;2023-07-20T02:04:19;24.20;68.00
4755;DHT22;2391;47.212;7.542;2023-07-20T02:06:45;24.20;68.50
4755;DHT22;2391;47.212;7.542;2023-07-20T02:09:11;24.30;68.70
4755;DHT22;2391;47.212;7.542;2023-07-20T02:11:36;24.40;68.60
4755;DHT22;2391;47.212;7.542;2023-07-20T02:14:02;24.40;68.30
4755;DHT22;2391;47.212;7.542;2023-07-20T02:16:28;24.50;68.50
4755;DHT22;2391;47.212;7.542;2023-07-20T02:18:53;24.60;68.30
4755;DHT22;2391;47.212;7.542;2023-07-20T02:21:21;24.60;68.30
4755;DHT22;2391;47.212;7.542;2023-07-20T02:23:47;24.60;68.50
4755;DHT22;2391;47.212;7.542;2023-07-20T02:26:12;24.70;68.60
4755;DHT22;2391;47.212;7.542;2023-07-20T02:28:38;24.70;68.40
4755;DHT22;2391;47.212;7.542;2023-07-20T02:31:04;24.70;68.40
4755;DHT22;2391;47.212;7.542;2023-07-20T02:33:30;24.70;68.60
4755;DHT22;2391;47.212;7.542;2023-07-20T02:35:55;24.70;68.80
4755;DHT22;2391;47.212;7.542;2023-07-20T02:38:21;24.70;69.00
4755;DHT22;2391;47.212;7.542;2023-07-20T02:40:47;24.80;68.90
4755;DHT22;2391;47.212;7.542;2023-07-20T02:43:12;24.80;68.90
4755;DHT22;2391;47.212;7.542;2023-07-20T02:45:41;24.80;68.80
4755;DHT22;2391;47.212;7.542;2023-07-20T02:48:09;24.70;68.80
4755;DHT22;2391;47.212;7.542;2023-07-20T02:50:35;24.70;69.20
4755;DHT22;2391;47.212;7.542;2023-07-20T02:53:01;24.50;69.10
4755;DHT22;2391;47.212;7.542;2023-07-20T02:55:27;24.50;69.20
4755;DHT22;2391;47.212;7.542;2023-07-20T02:57:52;24.40;69.30
4755;DHT22;2391;47.212;7.542;2023-07-20T03:00:18;24.50;69.50
4755;DHT22;2391;47.212;7.542;2023-07-20T03:02:45;24.50;69.70
4755;DHT22;2391;47.212;7.542;2023-07-20T03:05:14;24.50;69.60
4755;DHT22;2391;47.212;7.542;2023-07-20T03:07:39;24.50;69.80
4755;DHT22;2391;47.212;7.542;2023-07-20T03:10:06;24.50;69.80
4755;DHT22;2391;47.212;7.542;2023-07-20T03:12:33;24.50;69.80
4755;DHT22;2391;47.212;7.542;2023-07-20T03:14:59;24.50;69.90
4755;DHT22;2391;47.212;7.542;2023-07-20T03:17:25;24.60;69.80
4755;DHT22;2391;47.212;7.542;2023-07-20T03:19:51;24.60;69.70
4755;DHT22;2391;47.212;7.542;2023-07-20T03:22:16;24.50;69.80
4755;DHT22;2391;47.212;7.542;2023-07-20T03:24:42;24.60;69.90
4755;DHT22;2391;47.212;7.542;2023-07-20T03:27:08;24.60;69.70
4755;DHT22;2391;47.212;7.542;2023-07-20T03:29:34;24.60;69.80
4755;DHT22;2391;47.212;7.542;2023-07-20T03:32:00;24.60;69.90
4755;DHT22;2391;47.212;7.542;2023-07-20T03:34:26;24.50;69.70
4755;DHT22;2391;47.212;7.542;2023-07-20T03:36:52;24.50;69.30
4755;DHT22;2391;47.212;7.542;2023-07-20T03:39:17;24.60;69.30
4755;DHT22;2391;47.212;7.542;2023-07-20T03:41:43;24.60;69.30
4755;DHT22;2391;47.212;7.542;2023-07-20T03:44:09;24.50;69.10
4755;DHT22;2391;47.212;7.542;2023-07-20T03:46:34;24.50;69.10
4755;DHT22;2391;47.212;7.542;2023-07-20T03:49:00;24.50;69.20
4755;DHT22;2391;47.212;7.542;2023-07-20T03:51:26;24.50;69.40
4755;DHT22;2391;47.212;7.542;2023-07-20T03:53:52;24.50;69.10
4755;DHT22;2391;47.212;7.542;2023-07-20T03:56:17;24.50;69.00
4755;DHT22;2391;47.212;7.542;2023-07-20T03:58:43;24.50;69.20
4755;DHT22;2391;47.212;7.542;2023-07-20T04:01:09;24.40;69.30
4755;DHT22;2391;47.212;7.542;2023-07-20T04:03:35;24.40;69.30
4755;DHT22;2391;47.212;7.542;2023-07-20T04:06:02;24.40;69.30
4755;DHT22;2391;47.212;7.542;2023-07-20T04:08:33;24.40;69.30
4755;DHT22;2391;47.212;7.542;2023-07-20T04:11:01;24.40;69.40
4755;DHT22;2391;47.212;7.542;2023-07-20T04:13:27;24.30;70.10
4755;DHT22;2391;47.212;7.542;2023-07-20T04:15:53;24.30;69.70
4755;DHT22;2391;47.212;7.542;2023-07-20T04:18:20;24.30;69.70
4755;DHT22;2391;47.212;7.542;2023-07-20T04:20:46;24.20;70.10
4755;DHT22;2391;47.212;7.542;2023-07-20T04:23:12;24.20;70.90
4755;DHT22;2391;47.212;7.542;2023-07-20T04:25:41;24.20;71.00
4755;DHT22;2391;47.212;7.542;2023-07-20T04:28:07;24.10;71.10
4755;DHT22;2391;47.212;7.542;2023-07-20T04:30:36;24.10;71.00
4755;DHT22;2391;47.212;7.542;2023-07-20T04:33:03;24.10;70.60
4755;DHT22;2391;47.212;7.542;2023-07-20T04:35:48;24.00;70.80
4755;DHT22;2391;47.212;7.542;2023-07-20T04:38:15;24.00;70.90
4755;DHT22;2391;47.212;7.542;2023-07-20T04:40:46;24.00;70.80
4755;DHT22;2391;47.212;7.542;2023-07-20T04:43:13;24.00;70.80
4755;DHT22;2391;47.212;7.542;2023-07-20T04:45:39;24.00;70.80
4755;DHT22;2391;47.212;7.542;2023-07-20T04:48:09;24.00;70.70
4755;DHT22;2391;47.212;7.542;2023-07-20T04:50:35;24.00;71.00
4755;DHT22;2391;47.212;7.542;2023-07-20T04:53:02;24.00;71.10
4755;DHT22;2391;47.212;7.542;2023-07-20T04:55:28;24.00;71.10
4755;DHT22;2391;47.212;7.542;2023-07-20T04:57:54;23.90;71.00
4755;DHT22;2391;47.212;7.542;2023-07-20T05:00:20;23.90;70.80
4755;DHT22;2391;47.212;7.542;2023-07-20T05:02:47;23.90;70.90
4755;DHT22;2391;47.212;7.542;2023-07-20T05:05:15;24.00;71.30
4755;DHT22;2391;47.212;7.542;2023-07-20T05:07:40;24.00;71.40
4755;DHT22;2391;47.212;7.542;2023-07-20T05:10:07;24.00;71.60
4755;DHT22;2391;47.212;7.542;2023-07-20T05:12:33;24.10;71.90
4755;DHT22;2391;47.212;7.542;2023-07-20T05:14:58;24.10;71.90
4755;DHT22;2391;47.212;7.542;2023-07-20T05:17:24;24.20;71.80
4755;DHT22;2391;47.212;7.542;2023-07-20T05:19:50;24.20;71.80
4755;DHT22;2391;47.212;7.542;2023-07-20T05:22:16;24.30;71.70
4755;DHT22;2391;47.212;7.542;2023-07-20T05:24:42;24.30;71.70
4755;DHT22;2391;47.212;7.542;2023-07-20T05:27:08;24.30;71.50
4755;DHT22;2391;47.212;7.542;2023-07-20T05:29:34;24.30;71.20
4755;DHT22;2391;47.212;7.542;2023-07-20T05:32:00;24.30;70.90
4755;DHT22;2391;47.212;7.542;2023-07-20T05:34:25;24.20;70.60
4755;DHT22;2391;47.212;7.542;2023-07-20T05:36:51;24.30;70.40
4755;DHT22;2391;47.212;7.542;2023-07-20T05:39:17;24.30;70.60
4755;DHT22;2391;47.212;7.542;2023-07-20T05:41:43;24.40;70.60
4755;DHT22;2391;47.212;7.542;2023-07-20T05:44:09;24.40;70.60
4755;DHT22;2391;47.212;7.542;2023-07-20T05:46:35;24.40;70.40
4755;DHT22;2391;47.212;7.542;2023-07-20T05:49:01;24.40;70.20
4755;DHT22;2391;47.212;7.542;2023-07-20T05:51:27;24.40;70.60
4755;DHT22;2391;47.212;7.542;2023-07-20T05:53:53;24.40;71.00
4755;DHT22;2391;47.212;7.542;2023-07-20T05:56:19;24.40;71.10
4755;DHT22;2391;47.212;7.542;2023-07-20T05:58:45;24.40;71.30
4755;DHT22;2391;47.212;7.542;2023-07-20T06:01:10;24.40;71.60
4755;DHT22;2391;47.212;7.542;2023-07-20T06:03:36;24.40;71.90
4755;DHT22;2391;47.212;7.542;2023-07-20T06:06:03;24.40;72.00
4755;DHT22;2391;47.212;7.542;2023-07-20T06:08:34;24.40;71.80
4755;DHT22;2391;47.212;7.542;2023-07-20T06:11:00;24.30;71.50
4755;DHT22;2391;47.212;7.542;2023-07-20T06:13:25;24.30;71.20
4755;DHT22;2391;47.212;7.542;2023-07-20T06:15:52;24.30;70.80
4755;DHT22;2391;47.212;7.542;2023-07-20T06:18:18;24.30;71.10
4755;DHT22;2391;47.212;7.542;2023-07-20T06:20:51;24.50;71.40
4755;DHT22;2391;47.212;7.542;2023-07-20T06:23:20;24.60;71.60
4755;DHT22;2391;47.212;7.542;2023-07-20T06:25:46;24.80;70.90
4755;DHT22;2391;47.212;7.542;2023-07-20T06:28:13;24.90;71.30
4755;DHT22;2391;47.212;7.542;2023-07-20T06:30:39;25.20;71.00
4755;DHT22;2391;47.212;7.542;2023-07-20T06:33:05;25.30;69.80
4755;DHT22;2391;47.212;7.542;2023-07-20T06:35:32;25.50;69.20
4755;DHT22;2391;47.212;7.542;2023-07-20T06:37:58;25.60;69.10
4755;DHT22;2391;47.212;7.542;2023-07-20T06:40:25;25.70;67.10
4755;DHT22;2391;47.212;7.542;2023-07-20T06:42:51;25.80;67.00
4755;DHT22;2391;47.212;7.542;2023-07-20T06:45:17;25.90;66.50
4755;DHT22;2391;47.212;7.542;2023-07-20T06:47:42;25.90;66.40
4755;DHT22;2391;47.212;7.542;2023-07-20T06:50:09;26.00;66.20
4755;DHT22;2391;47.212;7.542;2023-07-20T06:52:35;26.10;66.70
4755;DHT22;2391;47.212;7.542;2023-07-20T06:55:01;26.20;66.20
4755;DHT22;2391;47.212;7.542;2023-07-20T06:57:27;26.30;66.20
4755;DHT22;2391;47.212;7.542;2023-07-20T06:59:52;26.40;65.00
4755;DHT22;2391;47.212;7.542;2023-07-20T07:02:19;26.50;64.50
4755;DHT22;2391;47.212;7.542;2023-07-20T07:04:45;26.70;65.50
4755;DHT22;2391;47.212;7.542;2023-07-20T07:07:14;26.80;65.10
4755;DHT22;2391;47.212;7.542;2023-07-20T07:09:40;26.90;64.90
4755;DHT22;2391;47.212;7.542;2023-07-20T07:12:07;27.00;64.30
4755;DHT22;2391;47.212;7.542;2023-07-20T07:14:33;27.10;63.60
4755;DHT22;2391;47.212;7.542;2023-07-20T07:17:00;27.20;63.40
4755;DHT22;2391;47.212;7.542;2023-07-20T07:19:26;27.20;62.90
4755;DHT22;2391;47.212;7.542;2023-07-20T07:21:52;27.20;61.80
4755;DHT22;2391;47.212;7.542;2023-07-20T07:24:18;27.20;61.50
4755;DHT22;2391;47.212;7.542;2023-07-20T07:26:43;27.20;61.50
4755;DHT22;2391;47.212;7.542;2023-07-20T07:29:09;27.30;61.00
4755;DHT22;2391;47.212;7.542;2023-07-20T07:31:35;27.20;60.80
4755;DHT22;2391;47.212;7.542;2023-07-20T07:34:02;27.20;60.10
4755;DHT22;2391;47.212;7.542;2023-07-20T07:36:28;27.20;61.10
4755;DHT22;2391;47.212;7.542;2023-07-20T07:38:54;27.30;60.50
4755;DHT22;2391;47.212;7.542;2023-07-20T07:41:20;27.50;59.20
4755;DHT22;2391;47.212;7.542;2023-07-20T07:43:46;27.70;59.20
4755;DHT22;2391;47.212;7.542;2023-07-20T07:46:12;27.70;60.00
4755;DHT22;2391;47.212;7.542;2023-07-20T07:48:39;27.80;60.90
4755;DHT22;2391;47.212;7.542;2023-07-20T07:51:05;28.00;60.50
4755;DHT22;2391;47.212;7.542;2023-07-20T07:53:31;27.90;60.50
4755;DHT22;2391;47.212;7.542;2023-07-20T07:56:02;28.00;59.50
4755;DHT22;2391;47.212;7.542;2023-07-20T07:58:29;28.00;59.30
4755;DHT22;2391;47.212;7.542;2023-07-20T08:00:54;28.10;59.80
4755;DHT22;2391;47.212;7.542;2023-07-20T08:03:20;28.20;60.10
4755;DHT22;2391;47.212;7.542;2023-07-20T08:05:47;28.40;59.40
4755;DHT22;2391;47.212;7.542;2023-07-20T08:08:12;28.50;58.70
4755;DHT22;2391;47.212;7.542;2023-07-20T08:10:38;28.60;57.90
4755;DHT22;2391;47.212;7.542;2023-07-20T08:13:04;28.60;58.70
4755;DHT22;2391;47.212;7.542;2023-07-20T08:15:29;28.50;58.30
4755;DHT22;2391;47.212;7.542;2023-07-20T08:17:55;28.40;58.30
4755;DHT22;2391;47.212;7.542;2023-07-20T08:20:22;28.40;58.00
4755;DHT22;2391;47.212;7.542;2023-07-20T08:22:49;28.40;57.30
4755;DHT22;2391;47.212;7.542;2023-07-20T08:25:15;28.40;57.30
4755;DHT22;2391;47.212;7.542;2023-07-20T08:27:41;28.40;57.30
4755;DHT22;2391;47.212;7.542;2023-07-20T08:30:08;28.50;58.70
4755;DHT22;2391;47.212;7.542;2023-07-20T08:32:34;28.50;58.50
4755;DHT22;2391;47.212;7.542;2023-07-20T08:34:59;28.50;58.00
4755;DHT22;2391;47.212;7.542;2023-07-20T08:37:25;28.40;57.10
4755;DHT22;2391;47.212;7.542;2023-07-20T08:39:51;28.20;57.80
4755;DHT22;2391;47.212;7.542;2023-07-20T08:42:17;28.10;56.50
4755;DHT22;2391;47.212;7.542;2023-07-20T08:44:43;27.90;56.50
4755;DHT22;2391;47.212;7.542;2023-07-20T08:47:12;27.90;57.30
4755;DHT22;2391;47.212;7.542;2023-07-20T08:49:39;27.90;58.10
4755;DHT22;2391;47.212;7.542;2023-07-20T08:52:05;27.90;57.60
4755;DHT22;2391;47.212;7.542;2023-07-20T08:54:31;27.80;58.50
4755;DHT22;2391;47.212;7.542;2023-07-20T08:57:03;27.80;59.10
4755;DHT22;2391;47.212;7.542;2023-07-20T08:59:29;27.90;59.20
4755;DHT22;2391;47.212;7.542;2023-07-20T09:02:00;28.10;59.20
4755;DHT22;2391;47.212;7.542;2023-07-20T09:04:26;28.20;58.30
4755;DHT22;2391;47.212;7.542;2023-07-20T09:06:52;28.30;57.90
4755;DHT22;2391;47.212;7.542;2023-07-20T09:09:18;28.30;57.70
4755;DHT22;2391;47.212;7.542;2023-07-20T09:11:47;28.30;56.10
4755;DHT22;2391;47.212;7.542;2023-07-20T09:14:14;28.20;56.30
4755;DHT22;2391;47.212;7.542;2023-07-20T09:16:52;28.00;56.90
4755;DHT22;2391;47.212;7.542;2023-07-20T09:19:18;27.90;57.60
4755;DHT22;2391;47.212;7.542;2023-07-20T09:21:45;27.90;58.20
4755;DHT22;2391;47.212;7.542;2023-07-20T09:24:12;28.00;57.50
4755;DHT22;2391;47.212;7.542;2023-07-20T09:26:42;28.10;57.30
4755;DHT22;2391;47.212;7.542;2023-07-20T09:29:08;28.30;58.20
4755;DHT22;2391;47.212;7.542;2023-07-20T09:31:37;28.30;57.10
4755;DHT22;2391;47.212;7.542;2023-07-20T09:34:05;28.30;58.10
4755;DHT22;2391;47.212;7.542;2023-07-20T09:36:34;28.30;57.70
4755;DHT22;2391;47.212;7.542;2023-07-20T09:39:01;28.30;57.10
4755;DHT22;2391;47.212;7.542;2023-07-20T09:41:28;28.30;56.20
4755;DHT22;2391;47.212;7.542;2023-07-20T09:43:54;28.30;57.10
4755;DHT22;2391;47.212;7.542;2023-07-20T09:46:20;28.10;55.30
4755;DHT22;2391;47.212;7.542;2023-07-20T09:48:52;28.00;55.60
4755;DHT22;2391;47.212;7.542;2023-07-20T09:51:22;27.90;56.10
4755;DHT22;2391;47.212;7.542;2023-07-20T09:53:49;28.00;58.10
4755;DHT22;2391;47.212;7.542;2023-07-20T09:56:17;28.10;56.60
4755;DHT22;2391;47.212;7.542;2023-07-20T09:58:45;28.10;56.30
4755;DHT22;2391;47.212;7.542;2023-07-20T10:01:12;28.10;57.00
4755;DHT22;2391;47.212;7.542;2023-07-20T10:03:41;28.10;58.10
4755;DHT22;2391;47.212;7.542;2023-07-20T10:06:11;28.20;56.30
4755;DHT22;2391;47.212;7.542;2023-07-20T10:08:42;28.20;56.50
4755;DHT22;2391;47.212;7.542;2023-07-20T10:11:09;28.10;58.00
4755;DHT22;2391;47.212;7.542;2023-07-20T10:13:38;28.20;57.40
4755;DHT22;2391;47.212;7.542;2023-07-20T10:16:13;28.30;57.40
4755;DHT22;2391;47.212;7.542;2023-07-20T10:21:19;28.50;56.60
4755;DHT22;2391;47.212;7.542;2023-07-20T10:23:46;28.70;55.60
4755;DHT22;2391;47.212;7.542;2023-07-20T10:26:13;28.80;55.90
4755;DHT22;2391;47.212;7.542;2023-07-20T10:28:39;28.90;55.40
4755;DHT22;2391;47.212;7.542;2023-07-20T10:31:07;28.90;54.90
4755;DHT22;2391;47.212;7.542;2023-07-20T10:33:34;28.90;55.70
4755;DHT22;2391;47.212;7.542;2023-07-20T10:36:04;29.10;56.10
4755;DHT22;2391;47.212;7.542;2023-07-20T10:41:34;29.30;55.50
4755;DHT22;2391;47.212;7.542;2023-07-20T10:44:05;29.30;54.80
4755;DHT22;2391;47.212;7.542;2023-07-20T10:49:09;29.40;55.30
4755;DHT22;2391;47.212;7.542;2023-07-20T10:51:46;29.40;55.30
4755;DHT22;2391;47.212;7.542;2023-07-20T10:56:49;29.30;53.70
4755;DHT22;2391;47.212;7.542;2023-07-20T10:59:20;29.30;54.60
4755;DHT22;2391;47.212;7.542;2023-07-20T11:01:47;29.40;54.90
4755;DHT22;2391;47.212;7.542;2023-07-20T11:04:17;29.50;53.70
4755;DHT22;2391;47.212;7.542;2023-07-20T11:06:48;29.50;53.70
4755;DHT22;2391;47.212;7.542;2023-07-20T11:09:15;29.60;53.60
4755;DHT22;2391;47.212;7.542;2023-07-20T11:11:48;29.60;53.90
4755;DHT22;2391;47.212;7.542;2023-07-20T11:14:24;29.60;55.40
4755;DHT22;2391;47.212;7.542;2023-07-20T11:16:52;29.70;53.60
4755;DHT22;2391;47.212;7.542;2023-07-20T11:19:19;29.70;53.40
4755;DHT22;2391;47.212;7.542;2023-07-20T11:21:49;29.60;52.70
4755;DHT22;2391;47.212;7.542;2023-07-20T11:24:15;29.60;53.00
4755;DHT22;2391;47.212;7.542;2023-07-20T11:26:54;29.60;53.90
4755;DHT22;2391;47.212;7.542;2023-07-20T11:29:22;29.60;54.10
4755;DHT22;2391;47.212;7.542;2023-07-20T11:31:49;29.60;51.90
4755;DHT22;2391;47.212;7.542;2023-07-20T11:34:19;29.40;52.10
4755;DHT22;2391;47.212;7.542;2023-07-20T11:36:50;29.40;53.40
4755;DHT22;2391;47.212;7.542;2023-07-20T11:39:18;29.40;53.60
4755;DHT22;2391;47.212;7.542;2023-07-20T11:41:49;29.40;53.00
4755;DHT22;2391;47.212;7.542;2023-07-20T11:44:16;29.40;53.40
4755;DHT22;2391;47.212;7.542;2023-07-20T11:46:43;29.50;54.40
4755;DHT22;2391;47.212;7.542;2023-07-20T11:49:10;29.50;53.60
4755;DHT22;2391;47.212;7.542;2023-07-20T11:51:36;29.50;54.40
4755;DHT22;2391;47.212;7.542;2023-07-20T11:54:04;29.60;53.70
4755;DHT22;2391;47.212;7.542;2023-07-20T11:56:30;29.60;54.20
4755;DHT22;2391;47.212;7.542;2023-07-20T11:58:59;29.70;53.10
4755;DHT22;2391;47.212;7.542;2023-07-20T12:01:28;29.60;52.40
4755;DHT22;2391;47.212;7.542;2023-07-20T12:03:59;29.50;53.40
4755;DHT22;2391;47.212;7.542;2023-07-20T12:06:28;29.40;53.00
4755;DHT22;2391;47.212;7.542;2023-07-20T12:08:56;29.40;53.60
4755;DHT22;2391;47.212;7.542;2023-07-20T12:11:38;29.40;53.20
4755;DHT22;2391;47.212;7.542;2023-07-20T12:14:07;29.40;54.30
4755;DHT22;2391;47.212;7.542;2023-07-20T12:16:35;29.40;54.50
4755;DHT22;2391;47.212;7.542;2023-07-20T12:19:04;29.40;52.50
4755;DHT22;2391;47.212;7.542;2023-07-20T12:21:31;29.30;53.20
4755;DHT22;2391;47.212;7.542;2023-07-20T12:23:58;29.30;53.70
4755;DHT22;2391;47.212;7.542;2023-07-20T12:26:25;29.30;52.80
4755;DHT22;2391;47.212;7.542;2023-07-20T12:28:52;29.30;52.10
4755;DHT22;2391;47.212;7.542;2023-07-20T12:31:18;29.20;53.40
4755;DHT22;2391;47.212;7.542;2023-07-20T12:33:44;29.20;53.30
4755;DHT22;2391;47.212;7.542;2023-07-20T12:36:10;29.30;52.90
4755;DHT22;2391;47.212;7.542;2023-07-20T12:38:36;29.40;52.50
4755;DHT22;2391;47.212;7.542;2023-07-20T12:41:02;29.50;53.00
4755;DHT22;2391;47.212;7.542;2023-07-20T12:43:29;29.60;54.40
4755;DHT22;2391;47.212;7.542;2023-07-20T12:45:56;29.60;54.00
4755;DHT22;2391;47.212;7.542;2023-07-20T12:48:22;29.70;53.20
4755;DHT22;2391;47.212;7.542;2023-07-20T12:50:48;29.70;53.80
4755;DHT22;2391;47.212;7.542;2023-07-20T12:53:14;29.70;54.40
4755;DHT22;2391;47.212;7.542;2023-07-20T12:55:39;29.80;53.70
4755;DHT22;2391;47.212;7.542;2023-07-20T12:58:07;29.80;54.60
4755;DHT22;2391;47.212;7.542;2023-07-20T13:00:33;29.90;54.30
4755;DHT22;2391;47.212;7.542;2023-07-20T13:02:58;29.90;53.50
4755;DHT22;2391;47.212;7.542;2023-07-20T13:05:24;29.90;53.50
4755;DHT22;2391;47.212;7.542;2023-07-20T13:07:50;30.00;53.10
4755;DHT22;2391;47.212;7.542;2023-07-20T13:10:16;30.00;52.70
4755;DHT22;2391;47.212;7.542;2023-07-20T13:12:42;30.00;52.90
4755;DHT22;2391;47.212;7.542;2023-07-20T13:15:09;30.00;53.80
4755;DHT22;2391;47.212;7.542;2023-07-20T13:17:38;29.90;53.40
4755;DHT22;2391;47.212;7.542;2023-07-20T13:20:05;29.80;53.90
4755;DHT22;2391;47.212;7.542;2023-07-20T13:22:33;29.80;54.40
4755;DHT22;2391;47.212;7.542;2023-07-20T13:24:59;29.80;53.50
4755;DHT22;2391;47.212;7.542;2023-07-20T13:27:25;29.80;54.10
4755;DHT22;2391;47.212;7.542;2023-07-20T13:29:51;29.80;53.50
4755;DHT22;2391;47.212;7.542;2023-07-20T13:32:18;29.90;53.90
4755;DHT22;2391;47.212;7.542;2023-07-20T13:34:44;30.00;53.80
4755;DHT22;2391;47.212;7.542;2023-07-20T13:37:11;30.00;53.50
4755;DHT22;2391;47.212;7.542;2023-07-20T13:39:38;30.00;53.00
4755;DHT22;2391;47.212;7.542;2023-07-20T13:42:04;29.90;53.10
4755;DHT22;2391;47.212;7.542;2023-07-20T13:44:34;30.00;53.40
4755;DHT22;2391;47.212;7.542;2023-07-20T13:47:01;30.00;54.00
4755;DHT22;2391;47.212;7.542;2023-07-20T13:49:28;30.00;54.20
4755;DHT22;2391;47.212;7.542;2023-07-20T13:51:55;30.00;53.40
4755;DHT22;2391;47.212;7.542;2023-07-20T13:54:21;30.00;53.30
4755;DHT22;2391;47.212;7.542;2023-07-20T13:56:47;29.90;53.70
4755;DHT22;2391;47.212;7.542;2023-07-20T13:59:13;30.00;53.50
4755;DHT22;2391;47.212;7.542;2023-07-20T14:01:39;30.00;53.00
4755;DHT22;2391;47.212;7.542;2023-07-20T14:04:04;30.10;53.40
4755;DHT22;2391;47.212;7.542;2023-07-20T14:06:31;30.10;52.90
4755;DHT22;2391;47.212;7.542;2023-07-20T14:08:58;30.20;53.40
4755;DHT22;2391;47.212;7.542;2023-07-20T14:11:24;30.20;53.40
4755;DHT22;2391;47.212;7.542;2023-07-20T14:13:51;30.20;53.20
4755;DHT22;2391;47.212;7.542;2023-07-20T14:16:20;30.20;54.30
4755;DHT22;2391;47.212;7.542;2023-07-20T14:18:46;30.20;54.40
4755;DHT22;2391;47.212;7.542;2023-07-20T14:21:13;30.20;54.00
4755;DHT22;2391;47.212;7.542;2023-07-20T14:23:38;30.20;53.50
4755;DHT22;2391;47.212;7.542;2023-07-20T14:26:04;30.20;53.40
4755;DHT22;2391;47.212;7.542;2023-07-20T14:28:31;30.20;53.10
4755;DHT22;2391;47.212;7.542;2023-07-20T14:30:57;30.30;52.20
4755;DHT22;2391;47.212;7.542;2023-07-20T14:33:23;30.30;53.00
4755;DHT22;2391;47.212;7.542;2023-07-20T14:35:49;30.30;52.20
4755;DHT22;2391;47.212;7.542;2023-07-20T14:38:14;30.30;52.60
4755;DHT22;2391;47.212;7.542;2023-07-20T14:40:40;30.30;52.80
4755;DHT22;2391;47.212;7.542;2023-07-20T14:43:06;30.20;52.40
4755;DHT22;2391;47.212;7.542;2023-07-20T14:45:32;30.10;53.00
4755;DHT22;2391;47.212;7.542;2023-07-20T14:47:58;30.20;53.30
4755;DHT22;2391;47.212;7.542;2023-07-20T14:50:24;30.30;52.60
4755;DHT22;2391;47.212;7.542;2023-07-20T14:52:50;30.30;53.00
4755;DHT22;2391;47.212;7.542;2023-07-20T14:55:15;30.30;53.30
4755;DHT22;2391;47.212;7.542;2023-07-20T14:57:41;30.40;53.90
4755;DHT22;2391;47.212;7.542;2023-07-20T15:00:08;30.40;53.40
4755;DHT22;2391;47.212;7.542;2023-07-20T15:02:36;30.40;54.10
4755;DHT22;2391;47.212;7.542;2023-07-20T15:05:03;30.40;54.40
4755;DHT22;2391;47.212;7.542;2023-07-20T15:07:29;30.40;54.00
4755;DHT22;2391;47.212;7.542;2023-07-20T15:09:54;30.30;54.30
4755;DHT22;2391;47.212;7.542;2023-07-20T15:12:20;30.40;53.80
4755;DHT22;2391;47.212;7.542;2023-07-20T15:14:49;30.30;54.30
4755;DHT22;2391;47.212;7.542;2023-07-20T15:17:15;30.20;54.30
4755;DHT22;2391;47.212;7.542;2023-07-20T15:19:41;30.10;55.20
4755;DHT22;2391;47.212;7.542;2023-07-20T15:22:06;30.20;55.40
4755;DHT22;2391;47.212;7.542;2023-07-20T15:24:33;30.20;54.80
4755;DHT22;2391;47.212;7.542;2023-07-20T15:26:59;30.10;54.60
4755;DHT22;2391;47.212;7.542;2023-07-20T15:29:26;30.10;55.00
4755;DHT22;2391;47.212;7.542;2023-07-20T15:31:52;30.10;54.90
4755;DHT22;2391;47.212;7.542;2023-07-20T15:34:18;30.10;54.80
4755;DHT22;2391;47.212;7.542;2023-07-20T15:36:43;30.10;54.90
4755;DHT22;2391;47.212;7.542;2023-07-20T15:39:09;30.20;55.00
4755;DHT22;2391;47.212;7.542;2023-07-20T15:41:35;30.20;55.20
4755;DHT22;2391;47.212;7.542;2023-07-20T15:44:01;30.30;54.60
4755;DHT22;2391;47.212;7.542;2023-07-20T15:49:06;30.20;54.50
4755;DHT22;2391;47.212;7.542;2023-07-20T15:51:34;30.20;54.70
4755;DHT22;2391;47.212;7.542;2023-07-20T15:54:05;30.20;54.80
4755;DHT22;2391;47.212;7.542;2023-07-20T15:56:33;30.20;54.70
4755;DHT22;2391;47.212;7.542;2023-07-20T15:58:59;30.10;54.60
4755;DHT22;2391;47.212;7.542;2023-07-20T16:01:24;30.10;55.00
4755;DHT22;2391;47.212;7.542;2023-07-20T16:03:50;30.10;54.80
4755;DHT22;2391;47.212;7.542;2023-07-20T16:06:16;30.10;54.70
4755;DHT22;2391;47.212;7.542;2023-07-20T16:08:42;30.20;55.00
4755;DHT22;2391;47.212;7.542;2023-07-20T16:11:08;30.20;54.60
4755;DHT22;2391;47.212;7.542;2023-07-20T16:13:33;30.20;54.10
4755;DHT22;2391;47.212;7.542;2023-07-20T16:15:59;30.20;54.70
4755;DHT22;2391;47.212;7.542;2023-07-20T16:18:25;30.20;55.10
4755;DHT22;2391;47.212;7.542;2023-07-20T16:20:51;30.20;55.30